createdAt,value
2023-05-10T00:00:02.498Z,3.55
2023-05-10T00:02:29.192Z,4.20
2023-05-10T00:04:55.872Z,3.95
2023-05-10T00:07:22.526Z,3.95
2023-05-10T00:09:49.213Z,2.83
2023-05-10T00:12:15.988Z,3.33
2023-05-10T00:14:42.622Z,3.45
2023-05-10T00:17:09.253Z,3.50
2023-05-10T00:19:35.841Z,3.40
2023-05-10T00:22:02.670Z,3.38
2023-05-10T00:24:29.399Z,3.90
2023-05-10T00:26:55.977Z,3.10
2023-05-10T00:29:22.699Z,3.45
2023-05-10T00:31:49.349Z,2.95
2023-05-10T00:34:15.949Z,3.08
2023-05-10T00:36:42.625Z,3.03
2023-05-10T00:39:09.486Z,3.85
2023-05-10T00:41:36.092Z,2.67
2023-05-10T00:44:03.150Z,3.00
2023-05-10T00:46:30.382Z,2.92
2023-05-10T00:48:57.333Z,2.97
2023-05-10T00:51:24.125Z,3.20
2023-05-10T00:53:52.430Z,2.60
2023-05-10T00:56:19.385Z,2.67
2023-05-10T00:58:46.242Z,2.83
2023-05-10T01:01:13.371Z,2.72
2023-05-10T01:03:40.863Z,3.60
2023-05-10T01:06:07.850Z,2.40
2023-05-10T01:08:34.913Z,2.78
2023-05-10T01:11:01.669Z,2.38
2023-05-10T01:13:36.122Z,2.38
2023-05-10T01:16:04.206Z,2.67
2023-05-10T01:18:34.137Z,2.38
2023-05-10T01:21:08.281Z,3.22
2023-05-10T01:23:43.987Z,2.63
2023-05-10T01:26:28.661Z,2.97
2023-05-10T01:28:58.231Z,3.40
2023-05-10T01:31:52.840Z,2.45
2023-05-10T01:34:26.713Z,2.45
2023-05-10T01:37:10.438Z,2.55
2023-05-10T01:39:47.955Z,2.50
2023-05-10T01:42:29.899Z,1.90
2023-05-10T01:45:03.473Z,2.58
2023-05-10T01:47:58.405Z,2.00
2023-05-10T01:50:30.537Z,2.33
2023-05-10T01:53:00.338Z,2.28
2023-05-10T01:55:33.210Z,3.25
2023-05-10T01:58:14.155Z,2.38
2023-05-10T02:00:43.747Z,1.80
2023-05-10T02:03:12.445Z,2.70
2023-05-10T02:05:41.124Z,2.70
2023-05-10T02:08:09.332Z,2.58
2023-05-10T02:10:36.619Z,2.85
2023-05-10T02:13:05.076Z,2.40
2023-05-10T02:15:33.087Z,2.28
2023-05-10T02:18:01.427Z,3.13
2023-05-10T02:20:28.360Z,2.08
2023-05-10T02:22:56.959Z,2.50
2023-05-10T02:25:25.597Z,2.28
2023-05-10T02:27:56.216Z,2.13
2023-05-10T02:30:24.362Z,2.03
2023-05-10T02:32:52.666Z,2.58
2023-05-10T02:35:20.290Z,1.88
2023-05-10T02:37:48.904Z,3.00
2023-05-10T02:40:18.916Z,1.98
2023-05-10T02:42:48.468Z,2.00
2023-05-10T02:45:31.412Z,1.95
2023-05-10T02:47:59.227Z,2.13
2023-05-10T02:50:29.694Z,2.20
2023-05-10T02:53:03.049Z,1.88
2023-05-10T02:55:36.460Z,2.05
2023-05-10T02:58:03.971Z,2.38
2023-05-10T03:00:30.908Z,2.45
2023-05-10T03:02:57.683Z,2.00
2023-05-10T03:05:24.500Z,2.08
2023-05-10T03:07:52.437Z,2.22
2023-05-10T03:10:19.938Z,2.45
2023-05-10T03:13:08.726Z,1.95
2023-05-10T03:15:46.067Z,1.75
2023-05-10T03:18:38.209Z,3.05
2023-05-10T03:21:09.974Z,1.90
2023-05-10T03:23:47.126Z,2.20
2023-05-10T03:26:21.571Z,2.78
2023-05-10T03:28:49.769Z,2.35
2023-05-10T03:31:16.525Z,1.85
2023-05-10T03:33:53.252Z,1.70
2023-05-10T03:36:20.476Z,1.90
2023-05-10T03:38:47.107Z,2.10
2023-05-10T03:41:13.795Z,2.10
2023-05-10T03:43:40.817Z,1.85
2023-05-10T03:46:08.639Z,1.92
2023-05-10T03:48:35.898Z,2.17
2023-05-10T03:51:03.114Z,1.67
2023-05-10T03:53:29.990Z,2.03
2023-05-10T03:55:56.680Z,1.95
2023-05-10T03:58:23.422Z,1.52
2023-05-10T04:00:50.074Z,1.90
2023-05-10T04:03:16.921Z,1.52
2023-05-10T04:05:43.614Z,1.60
2023-05-10T04:08:10.410Z,2.50
2023-05-10T04:10:37.092Z,1.73
2023-05-10T04:13:03.955Z,1.83
2023-05-10T04:15:30.647Z,1.95
2023-05-10T04:17:57.326Z,1.73
2023-05-10T04:20:24.016Z,1.50
2023-05-10T04:22:50.613Z,1.65
2023-05-10T04:25:17.384Z,1.60
2023-05-10T04:27:43.992Z,1.80
2023-05-10T04:30:10.969Z,1.33
2023-05-10T04:32:37.600Z,1.75
2023-05-10T04:35:05.739Z,1.92
2023-05-10T04:37:32.505Z,1.80
2023-05-10T04:40:00.923Z,1.67
2023-05-10T04:42:27.546Z,2.40
2023-05-10T04:44:54.185Z,2.15
2023-05-10T04:47:20.951Z,2.40
2023-05-10T04:49:47.599Z,2.15
2023-05-10T04:52:15.396Z,1.90
2023-05-10T04:54:42.000Z,2.33
2023-05-10T04:57:08.787Z,2.10
2023-05-10T04:59:37.649Z,1.98
2023-05-10T05:02:04.578Z,1.75
2023-05-10T05:04:32.065Z,2.13
2023-05-10T05:06:58.658Z,1.85
2023-05-10T05:09:25.266Z,2.28
2023-05-10T05:11:51.883Z,1.77
2023-05-10T05:14:18.484Z,2.10
2023-05-10T05:16:45.214Z,2.28
2023-05-10T05:19:11.819Z,2.30
2023-05-10T05:21:38.499Z,2.03
2023-05-10T05:24:05.666Z,2.83
2023-05-10T05:26:32.293Z,2.47
2023-05-10T05:28:58.944Z,3.05
2023-05-10T05:31:25.648Z,2.15
2023-05-10T05:33:52.650Z,2.50
2023-05-10T05:36:19.265Z,2.42
2023-05-10T05:38:46.069Z,2.47
2023-05-10T05:41:13.131Z,2.25
2023-05-10T05:43:39.821Z,2.28
2023-05-10T05:46:06.637Z,2.50
2023-05-10T05:48:33.523Z,2.45
2023-05-10T05:51:00.267Z,2.28
2023-05-10T05:53:27.185Z,2.70
2023-05-10T05:55:54.272Z,2.92
2023-05-10T05:58:21.727Z,3.10
2023-05-10T06:00:48.465Z,2.97
2023-05-10T06:03:15.321Z,3.17
2023-05-10T06:05:42.099Z,3.35
2023-05-10T06:08:08.688Z,4.25
2023-05-10T06:10:35.313Z,3.85
2023-05-10T06:13:02.101Z,3.70
2023-05-10T06:15:28.918Z,4.32
2023-05-10T06:17:55.673Z,3.38
2023-05-10T06:20:22.333Z,3.30
2023-05-10T06:22:48.953Z,2.22
2023-05-10T06:25:16.243Z,3.17
2023-05-10T06:27:43.061Z,2.53
2023-05-10T06:30:13.275Z,2.55
2023-05-10T06:32:40.711Z,2.63
2023-05-10T06:35:07.978Z,3.15
2023-05-10T06:37:35.458Z,2.50
2023-05-10T06:40:02.909Z,3.63
2023-05-10T06:42:29.554Z,2.58
2023-05-10T06:44:56.148Z,2.67
2023-05-10T06:47:23.079Z,3.30
2023-05-10T06:49:49.669Z,2.63
2023-05-10T06:52:16.293Z,3.80
2023-05-10T06:54:42.982Z,2.25
2023-05-10T06:57:23.415Z,3.08
2023-05-10T06:59:57.282Z,2.92
2023-05-10T07:02:24.170Z,2.80
2023-05-10T07:04:52.907Z,1.80
2023-05-10T07:07:20.208Z,1.88
2023-05-10T07:09:47.145Z,3.65
2023-05-10T07:12:15.299Z,2.00
2023-05-10T07:14:43.047Z,1.88
2023-05-10T07:17:10.423Z,3.00
2023-05-10T07:19:37.675Z,2.22
2023-05-10T07:22:04.539Z,2.88
2023-05-10T07:24:32.328Z,2.22
2023-05-10T07:26:59.089Z,2.25
2023-05-10T07:29:26.545Z,2.85
2023-05-10T07:31:53.422Z,2.00
2023-05-10T07:34:20.224Z,1.85
2023-05-10T07:36:47.519Z,2.80
2023-05-10T07:39:18.601Z,2.50
2023-05-10T07:41:53.067Z,3.53
2023-05-10T07:44:21.325Z,2.30
2023-05-10T07:46:48.753Z,1.98
2023-05-10T07:49:15.518Z,1.67
2023-05-10T07:51:43.357Z,3.00
2023-05-10T07:54:10.065Z,2.35
2023-05-10T07:56:37.168Z,2.40
2023-05-10T07:59:06.086Z,2.13
2023-05-10T08:01:34.121Z,2.78
2023-05-10T08:04:01.301Z,2.95
2023-05-10T08:06:29.242Z,2.45
2023-05-10T08:08:56.582Z,3.75
2023-05-10T08:11:24.970Z,2.33
2023-05-10T08:13:52.437Z,1.85
2023-05-10T08:16:19.271Z,2.42
2023-05-10T08:18:48.039Z,2.00
2023-05-10T08:21:15.675Z,1.90
2023-05-10T08:23:42.572Z,1.98
2023-05-10T08:26:09.247Z,2.00
2023-05-10T08:28:35.910Z,1.75
2023-05-10T08:31:02.724Z,1.90
2023-05-10T08:33:29.423Z,1.98
2023-05-10T08:35:56.130Z,2.22
2023-05-10T08:38:22.827Z,2.13
2023-05-10T08:40:51.963Z,1.65
2023-05-10T08:43:19.381Z,2.65
2023-05-10T08:45:47.951Z,1.75
2023-05-10T08:48:16.158Z,1.83
2023-05-10T08:50:44.003Z,2.03
2023-05-10T08:53:17.052Z,1.83
2023-05-10T08:55:45.146Z,1.73
2023-05-10T08:58:12.034Z,2.08
2023-05-10T09:00:38.991Z,1.30
2023-05-10T09:03:07.595Z,1.63
2023-05-10T09:05:34.486Z,1.80
2023-05-10T09:08:04.181Z,2.15
2023-05-10T09:10:32.229Z,1.55
2023-05-10T09:12:59.745Z,1.80
2023-05-10T09:15:27.156Z,1.58
2023-05-10T09:17:55.658Z,1.65
2023-05-10T09:20:22.547Z,2.10
2023-05-10T09:22:49.446Z,1.85
2023-05-10T09:25:17.814Z,1.40
2023-05-10T09:27:48.782Z,1.73
2023-05-10T09:30:29.645Z,1.48
2023-05-10T09:32:58.085Z,1.33
2023-05-10T09:35:30.147Z,1.42
2023-05-10T09:38:02.303Z,1.30
2023-05-10T09:40:31.172Z,1.38
2023-05-10T09:43:07.891Z,0.80
2023-05-10T09:48:07.163Z,1.40
2023-05-10T09:50:35.214Z,1.13
2023-05-10T09:53:04.576Z,1.75
2023-05-10T09:55:37.292Z,1.15
2023-05-10T09:58:05.377Z,1.30
2023-05-10T10:00:40.600Z,1.13
2023-05-10T10:03:13.340Z,1.30
2023-05-10T10:05:41.795Z,1.33
2023-05-10T10:08:08.702Z,1.17
2023-05-10T10:10:35.642Z,1.42
2023-05-10T10:13:03.698Z,1.20
2023-05-10T10:15:30.615Z,1.50
2023-05-10T10:17:57.281Z,1.20
2023-05-10T10:20:25.088Z,1.75
2023-05-10T10:22:52.439Z,1.48
2023-05-10T10:25:20.582Z,1.15
2023-05-10T10:28:10.703Z,1.50
2023-05-10T10:30:47.466Z,1.02
2023-05-10T10:33:34.998Z,3.05
2023-05-10T10:36:03.833Z,1.45
2023-05-10T10:39:01.208Z,1.30
2023-05-10T10:41:42.025Z,1.00
2023-05-10T10:44:27.139Z,1.73
2023-05-10T10:47:10.326Z,1.13
2023-05-10T10:49:49.392Z,0.95
2023-05-10T10:52:17.251Z,1.48
2023-05-10T10:54:51.602Z,0.93
2023-05-10T10:57:19.943Z,1.50
2023-05-10T10:59:47.357Z,1.67
2023-05-10T11:02:42.524Z,2.45
2023-05-10T11:05:42.760Z,1.45
2023-05-10T11:08:19.804Z,1.20
2023-05-10T11:11:01.473Z,1.38
2023-05-10T11:13:33.814Z,1.20
2023-05-10T11:16:17.783Z,1.10
2023-05-10T11:19:05.308Z,1.33
2023-05-10T11:21:33.699Z,1.48
2023-05-10T11:24:02.045Z,1.27
2023-05-10T11:26:34.853Z,1.17
2023-05-10T11:29:03.080Z,0.75
2023-05-10T11:31:30.394Z,2.15
2023-05-10T11:34:01.012Z,0.90
2023-05-10T11:36:30.387Z,1.05
2023-05-10T11:38:57.870Z,0.70
2023-05-10T11:41:26.222Z,1.20
2023-05-10T11:43:55.224Z,0.90
2023-05-10T11:46:24.346Z,1.10
2023-05-10T11:48:52.860Z,1.40
2023-05-10T11:51:24.653Z,1.00
2023-05-10T11:53:54.023Z,0.70
2023-05-10T11:56:22.761Z,0.73
2023-05-10T11:58:57.595Z,1.20
2023-05-10T12:01:29.684Z,0.90
2023-05-10T12:04:02.859Z,0.60
2023-05-10T12:06:36.938Z,0.60
2023-05-10T12:09:10.685Z,0.60
2023-05-10T12:11:40.553Z,1.00
2023-05-10T12:14:09.782Z,0.70
2023-05-10T12:16:36.991Z,0.60
2023-05-10T12:19:03.938Z,0.80
2023-05-10T12:21:34.521Z,0.57
2023-05-10T12:24:04.256Z,0.73
2023-05-10T12:26:31.442Z,1.60
2023-05-10T12:29:18.116Z,0.90
2023-05-10T12:31:59.594Z,1.05
2023-05-10T12:34:37.281Z,0.85
2023-05-10T12:37:04.776Z,0.77
2023-05-10T12:39:45.738Z,0.95
2023-05-10T12:42:12.851Z,0.63
2023-05-10T12:44:40.225Z,0.30
2023-05-10T12:47:07.169Z,0.50
2023-05-10T12:49:34.981Z,1.00
2023-05-10T12:52:01.746Z,0.47
2023-05-10T12:54:28.931Z,0.60
2023-05-10T12:56:55.842Z,0.38
2023-05-10T12:59:22.508Z,0.50
2023-05-10T13:01:49.194Z,0.52
2023-05-10T13:04:15.865Z,0.70
2023-05-10T13:06:42.490Z,0.68
2023-05-10T13:09:09.231Z,0.77
2023-05-10T13:11:36.261Z,0.20
2023-05-10T13:14:04.254Z,0.60
2023-05-10T13:16:31.702Z,0.57
2023-05-10T13:18:58.522Z,1.23
2023-05-10T13:21:26.120Z,0.40
2023-05-10T13:23:52.773Z,0.45
2023-05-10T13:26:19.901Z,0.50
2023-05-10T13:28:47.180Z,0.35
2023-05-10T13:31:13.822Z,0.25
2023-05-10T13:33:40.679Z,0.22
2023-05-10T13:36:07.774Z,0.30
2023-05-10T13:38:34.446Z,0.50
2023-05-10T13:41:01.078Z,0.20
2023-05-10T13:43:27.987Z,0.40
2023-05-10T13:45:54.759Z,0.40
2023-05-10T13:48:21.478Z,0.30
2023-05-10T13:50:48.237Z,0.40
2023-05-10T13:53:15.506Z,0.47
2023-05-10T13:55:42.465Z,0.50
2023-05-10T13:58:09.094Z,0.40
2023-05-10T14:00:35.716Z,0.50
2023-05-10T14:03:02.554Z,0.40
2023-05-10T14:05:29.656Z,0.40
2023-05-10T14:07:57.822Z,0.50
2023-05-10T14:10:25.766Z,0.50
2023-05-10T14:12:52.626Z,0.60
2023-05-10T14:15:19.408Z,0.40
2023-05-10T14:17:49.455Z,0.63
2023-05-10T14:20:16.191Z,0.98
2023-05-10T14:22:42.786Z,0.50
2023-05-10T14:25:09.860Z,0.40
2023-05-10T14:27:36.842Z,0.50
2023-05-10T14:30:03.877Z,0.75
2023-05-10T14:32:30.582Z,0.60
2023-05-10T14:34:57.245Z,0.60
2023-05-10T14:37:24.080Z,0.40
2023-05-10T14:39:50.676Z,0.55
2023-05-10T14:42:17.269Z,0.50
2023-05-10T14:44:43.889Z,0.63
2023-05-10T14:47:12.075Z,0.55
2023-05-10T14:49:40.371Z,0.50
2023-05-10T14:52:07.449Z,0.70
2023-05-10T14:54:36.955Z,0.70
2023-05-10T14:57:03.645Z,0.60
2023-05-10T14:59:30.394Z,0.82
2023-05-10T15:01:57.504Z,0.68
2023-05-10T15:04:25.941Z,0.70
2023-05-10T15:07:00.116Z,0.82
2023-05-10T15:09:28.980Z,0.75
2023-05-10T15:11:57.305Z,0.60
2023-05-10T15:14:24.321Z,0.82
2023-05-10T15:16:51.116Z,0.88
2023-05-10T15:19:18.876Z,0.57
2023-05-10T15:21:46.952Z,0.82
2023-05-10T15:24:14.928Z,0.90
2023-05-10T15:26:41.557Z,0.70
2023-05-10T15:29:08.245Z,0.63
2023-05-10T15:31:38.849Z,0.70
2023-05-10T15:34:05.684Z,0.90
2023-05-10T15:36:33.142Z,0.77
2023-05-10T15:38:59.790Z,1.05
2023-05-10T15:41:26.581Z,0.70
2023-05-10T15:43:53.236Z,1.10
2023-05-10T15:46:20.078Z,0.60
2023-05-10T15:48:46.711Z,0.55
2023-05-10T15:51:13.432Z,0.80
2023-05-10T15:53:49.475Z,0.82
2023-05-10T15:56:23.489Z,0.65
2023-05-10T15:58:50.240Z,0.43
2023-05-10T16:01:17.118Z,0.50
2023-05-10T16:03:43.977Z,0.60
2023-05-10T16:06:10.606Z,0.70
2023-05-10T16:08:37.229Z,0.70
2023-05-10T16:11:04.004Z,0.47
2023-05-10T16:13:30.598Z,0.60
2023-05-10T16:16:00.459Z,0.55
2023-05-10T16:18:27.495Z,0.60
2023-05-10T16:20:54.395Z,0.75
2023-05-10T16:23:21.301Z,0.70
2023-05-10T16:25:48.281Z,0.70
2023-05-10T16:28:15.017Z,0.80
2023-05-10T16:30:41.797Z,0.55
2023-05-10T16:33:08.681Z,0.38
2023-05-10T16:35:35.489Z,0.60
2023-05-10T16:38:02.241Z,0.50
2023-05-10T16:40:28.908Z,0.50
2023-05-10T16:42:55.553Z,0.60
2023-05-10T16:45:22.373Z,0.60
2023-05-10T16:47:49.053Z,0.40
2023-05-10T16:50:15.762Z,1.23
2023-05-10T16:52:42.439Z,0.40
2023-05-10T16:55:09.469Z,0.57
2023-05-10T16:57:36.268Z,0.65
2023-05-10T17:00:04.454Z,0.63
2023-05-10T17:02:31.270Z,0.50
2023-05-10T17:04:57.963Z,0.68
2023-05-10T17:07:26.196Z,0.60
2023-05-10T17:09:53.113Z,0.70
2023-05-10T17:12:19.761Z,0.60
2023-05-10T17:14:46.420Z,0.82
2023-05-10T17:17:13.275Z,0.60
2023-05-10T17:19:39.998Z,0.52
2023-05-10T17:22:06.796Z,0.40
2023-05-10T17:24:33.966Z,1.38
2023-05-10T17:27:00.865Z,0.60
2023-05-10T17:29:28.512Z,0.60
2023-05-10T17:31:55.285Z,0.80
2023-05-10T17:34:22.015Z,0.82
2023-05-10T17:36:48.765Z,0.55
2023-05-10T17:39:15.616Z,0.85
2023-05-10T17:41:42.214Z,0.50
2023-05-10T17:44:08.960Z,0.50
2023-05-10T17:46:35.657Z,0.65
2023-05-10T17:49:02.425Z,0.70
2023-05-10T17:51:29.114Z,0.82
2023-05-10T17:53:55.876Z,0.57
2023-05-10T17:56:22.636Z,0.70
2023-05-10T17:58:50.529Z,0.80
2023-05-10T18:01:17.277Z,0.90
2023-05-10T18:03:43.970Z,1.02
2023-05-10T18:06:10.794Z,0.70
2023-05-10T18:08:37.610Z,0.55
2023-05-10T18:11:04.388Z,0.57
2023-05-10T18:13:31.098Z,0.70
2023-05-10T18:15:57.795Z,0.60
2023-05-10T18:18:24.496Z,0.70
2023-05-10T18:20:57.292Z,0.63
2023-05-10T18:23:24.707Z,0.60
2023-05-10T18:25:51.820Z,0.70
2023-05-10T18:28:18.901Z,0.70
2023-05-10T18:30:45.702Z,1.10
2023-05-10T18:33:12.780Z,0.65
2023-05-10T18:35:40.331Z,0.50
2023-05-10T18:38:09.816Z,0.70
2023-05-10T18:40:37.338Z,0.30
2023-05-10T18:43:04.219Z,0.80
2023-05-10T18:45:31.090Z,0.50
2023-05-10T18:47:58.356Z,0.95
2023-05-10T18:50:24.985Z,0.75
2023-05-10T18:52:51.703Z,0.90
2023-05-10T18:55:18.694Z,0.70
2023-05-10T18:57:45.927Z,0.73
2023-05-10T19:00:13.246Z,0.80
2023-05-10T19:02:40.677Z,0.73
2023-05-10T19:05:08.254Z,0.50
2023-05-10T19:07:34.979Z,0.60
2023-05-10T19:10:01.616Z,0.60
2023-05-10T19:12:28.551Z,0.73
2023-05-10T19:14:55.118Z,0.88
2023-05-10T19:17:23.762Z,0.60
2023-05-10T19:19:51.532Z,0.80
2023-05-10T19:22:28.340Z,0.98
2023-05-10T19:25:03.698Z,0.88
2023-05-10T19:27:30.776Z,0.68
2023-05-10T19:29:57.661Z,0.63
2023-05-10T19:32:24.587Z,0.57
2023-05-10T19:34:52.711Z,1.17
2023-05-10T19:37:19.423Z,0.65
2023-05-10T19:39:46.159Z,0.60
2023-05-10T19:42:13.075Z,0.63
2023-05-10T19:44:40.087Z,0.70
2023-05-10T19:47:08.680Z,0.70
2023-05-10T19:49:38.463Z,0.60
2023-05-10T19:52:07.834Z,1.05
2023-05-10T19:54:34.429Z,0.63
2023-05-10T19:57:01.211Z,2.35
2023-05-10T19:59:27.854Z,0.82
2023-05-10T20:01:54.508Z,1.35
2023-05-10T20:04:22.178Z,0.82
2023-05-10T20:06:49.004Z,0.70
2023-05-10T20:09:16.150Z,0.80
2023-05-10T20:11:42.783Z,0.82
2023-05-10T20:14:09.474Z,0.80
2023-05-10T20:16:36.497Z,1.05
2023-05-10T20:19:03.167Z,0.77
2023-05-10T20:21:29.787Z,0.50
2023-05-10T20:23:56.492Z,0.75
2023-05-10T20:26:23.920Z,1.27
2023-05-10T20:28:51.243Z,0.90
2023-05-10T20:31:17.994Z,1.05
2023-05-10T20:33:44.784Z,0.80
2023-05-10T20:36:11.428Z,0.82
2023-05-10T20:38:38.106Z,0.75
2023-05-10T20:41:04.696Z,0.77
2023-05-10T20:43:31.524Z,0.85
2023-05-10T20:46:05.151Z,0.93
2023-05-10T20:48:35.330Z,0.90
2023-05-10T20:51:02.505Z,1.48
2023-05-10T20:53:29.470Z,0.90
2023-05-10T20:55:56.171Z,0.75
2023-05-10T20:58:22.844Z,0.95
2023-05-10T21:00:49.482Z,0.93
2023-05-10T21:03:16.265Z,0.75
2023-05-10T21:05:42.909Z,1.20
2023-05-10T21:08:09.489Z,0.73
2023-05-10T21:10:36.098Z,0.70
2023-05-10T21:13:02.773Z,0.70
2023-05-10T21:15:29.389Z,0.73
2023-05-10T21:17:56.083Z,0.90
2023-05-10T21:20:23.510Z,0.80
2023-05-10T21:22:50.172Z,0.70
2023-05-10T21:25:17.262Z,0.75
2023-05-10T21:27:43.877Z,0.68
2023-05-10T21:30:10.796Z,0.60
2023-05-10T21:32:37.457Z,0.77
2023-05-10T21:35:04.456Z,0.73
2023-05-10T21:37:31.105Z,0.68
2023-05-10T21:39:57.754Z,0.80
2023-05-10T21:42:24.478Z,1.35
2023-05-10T21:44:51.115Z,1.02
2023-05-10T21:47:17.976Z,0.75
2023-05-10T21:49:44.799Z,0.80
2023-05-10T21:52:11.778Z,1.15
2023-05-10T21:54:39.008Z,0.98
2023-05-10T21:57:05.678Z,1.08
2023-05-10T21:59:32.285Z,1.05
2023-05-10T22:01:58.994Z,0.90
2023-05-10T22:04:25.629Z,1.30
2023-05-10T22:06:52.260Z,0.77
2023-05-10T22:09:19.018Z,1.05
2023-05-10T22:11:45.796Z,0.70
2023-05-10T22:14:12.439Z,0.85
2023-05-10T22:16:39.152Z,1.00
2023-05-10T22:19:05.979Z,1.70
2023-05-10T22:21:32.694Z,1.42
2023-05-10T22:23:59.316Z,1.38
2023-05-10T22:26:26.199Z,1.88
2023-05-10T22:28:52.838Z,1.55
2023-05-10T22:31:19.542Z,1.35
2023-05-10T22:33:46.272Z,0.85
2023-05-10T22:36:12.938Z,0.98
2023-05-10T22:38:39.562Z,0.82
2023-05-10T22:41:06.679Z,0.80
2023-05-10T22:43:33.470Z,1.10
2023-05-10T22:46:00.143Z,1.08
2023-05-10T22:48:28.608Z,1.67
2023-05-10T22:50:55.260Z,1.15
2023-05-10T22:53:21.863Z,1.58
2023-05-10T22:55:48.576Z,1.08
2023-05-10T22:58:15.253Z,1.00
2023-05-10T23:00:41.873Z,1.08
2023-05-10T23:03:08.569Z,1.50
2023-05-10T23:05:35.255Z,1.00
2023-05-10T23:08:02.036Z,1.30
2023-05-10T23:10:28.695Z,1.15
2023-05-10T23:12:56.147Z,1.15
2023-05-10T23:15:22.858Z,1.10
2023-05-10T23:17:49.596Z,1.08
2023-05-10T23:20:16.722Z,1.50
2023-05-10T23:22:43.450Z,1.65
2023-05-10T23:25:10.526Z,1.08
2023-05-10T23:27:37.163Z,1.10
2023-05-10T23:30:04.471Z,1.00
2023-05-10T23:32:31.160Z,1.20
2023-05-10T23:34:57.852Z,1.63
2023-05-10T23:37:24.513Z,1.25
2023-05-10T23:39:52.162Z,1.70
2023-05-10T23:42:18.853Z,1.70
2023-05-10T23:44:45.491Z,1.13
2023-05-10T23:47:12.177Z,1.30
2023-05-10T23:49:38.826Z,1.10
2023-05-10T23:52:05.477Z,1.65
2023-05-10T23:54:32.075Z,1.20
2023-05-10T23:56:58.685Z,1.10
2023-05-10T23:59:25.660Z,1.45
